createdAt,value
2017-10-27T00:01:44.793Z,10.90
2017-10-27T00:04:12.374Z,11.13
2017-10-27T00:06:39.952Z,9.90
2017-10-27T00:09:07.790Z,11.17
2017-10-27T00:11:35.386Z,12.10
2017-10-27T00:14:03.019Z,11.13
2017-10-27T00:16:30.681Z,11.88
2017-10-27T00:18:58.371Z,10.53
2017-10-27T00:21:26.112Z,12.90
2017-10-27T00:23:54.274Z,11.23
2017-10-27T00:26:21.881Z,10.18
2017-10-27T00:28:49.793Z,11.85
2017-10-27T00:31:17.388Z,11.90
2017-10-27T00:33:45.034Z,12.37
2017-10-27T00:36:13.302Z,13.80
2017-10-27T00:38:40.884Z,12.53
2017-10-27T00:41:08.445Z,14.10
2017-10-27T00:43:36.337Z,11.47
2017-10-27T00:46:03.910Z,15.33
2017-10-27T00:48:31.513Z,11.38
2017-10-27T00:50:59.859Z,10.00
2017-10-27T00:53:27.420Z,10.20
2017-10-27T00:55:55.554Z,8.67
2017-10-27T00:58:23.708Z,10.00
2017-10-27T01:00:51.637Z,9.13
2017-10-27T01:03:20.274Z,12.23
2017-10-27T01:05:47.944Z,8.73
2017-10-27T01:08:16.506Z,9.38
2017-10-27T01:10:44.390Z,9.60
2017-10-27T01:13:12.269Z,10.30
2017-10-27T01:15:40.167Z,9.73
2017-10-27T01:18:07.843Z,9.60
2017-10-27T01:20:35.949Z,8.40
2017-10-27T01:23:03.577Z,14.17
2017-10-27T01:25:31.130Z,9.27
2017-10-27T01:27:59.042Z,10.93
2017-10-27T01:30:26.651Z,8.53
2017-10-27T01:32:54.546Z,10.87
2017-10-27T01:35:22.588Z,9.37
2017-10-27T01:37:51.115Z,8.93
2017-10-27T01:40:18.677Z,9.37
2017-10-27T01:42:46.261Z,7.27
2017-10-27T01:45:15.519Z,15.88
2017-10-27T01:47:43.831Z,13.10
2017-10-27T01:50:11.392Z,9.10
2017-10-27T01:52:38.927Z,10.17
2017-10-27T01:55:06.461Z,10.20
2017-10-27T01:57:34.271Z,8.90
2017-10-27T02:00:01.807Z,9.63
2017-10-27T02:02:30.110Z,8.35
2017-10-27T02:04:57.699Z,9.77
2017-10-27T02:07:25.233Z,13.13
2017-10-27T02:09:52.767Z,9.53
2017-10-27T02:12:20.319Z,9.50
2017-10-27T02:14:48.619Z,8.73
2017-10-27T02:17:16.407Z,20.00
2017-10-27T02:19:43.961Z,9.80
2017-10-27T02:22:11.482Z,9.67
2017-10-27T02:24:39.007Z,9.37
2017-10-27T02:27:06.612Z,9.60
2017-10-27T02:29:34.899Z,9.73
2017-10-27T02:32:02.435Z,8.32
2017-10-27T02:34:29.995Z,14.33
2017-10-27T02:36:57.532Z,13.57
2017-10-27T02:39:25.064Z,9.68
2017-10-27T02:41:52.625Z,9.80
2017-10-27T02:44:20.172Z,8.60
2017-10-27T02:46:47.728Z,9.97
2017-10-27T02:49:15.511Z,10.43
2017-10-27T02:51:43.050Z,9.63
2017-10-27T02:54:11.348Z,9.93
2017-10-27T02:56:38.903Z,7.97
2017-10-27T02:59:06.860Z,8.60
2017-10-27T03:01:34.399Z,10.03
2017-10-27T03:04:01.961Z,8.17
2017-10-27T03:06:29.496Z,8.33
2017-10-27T03:08:57.022Z,8.43
2017-10-27T03:11:24.607Z,10.13
2017-10-27T03:13:52.130Z,17.70
2017-10-27T03:16:19.667Z,15.25
2017-10-27T03:18:47.991Z,12.20
2017-10-27T03:21:16.411Z,12.63
2017-10-27T03:23:44.116Z,10.87
2017-10-27T03:26:11.679Z,12.57
2017-10-27T03:28:39.212Z,8.80
2017-10-27T03:31:07.517Z,8.93
2017-10-27T03:33:35.107Z,11.70
2017-10-27T03:36:02.644Z,14.50
2017-10-27T03:38:30.185Z,15.47
2017-10-27T03:40:57.763Z,11.60
2017-10-27T03:43:25.312Z,11.57
2017-10-27T03:45:52.855Z,11.87
2017-10-27T03:48:22.196Z,13.82
2017-10-27T03:50:49.735Z,10.53
2017-10-27T03:53:17.276Z,11.57
2017-10-27T03:55:44.882Z,9.70
2017-10-27T03:58:12.419Z,11.33
2017-10-27T04:00:40.292Z,10.30
2017-10-27T04:03:07.851Z,10.10
2017-10-27T04:05:36.166Z,15.37
2017-10-27T04:08:03.731Z,10.80
2017-10-27T04:10:31.296Z,10.43
2017-10-27T04:12:58.833Z,14.87
2017-10-27T04:15:26.364Z,15.83
2017-10-27T04:17:53.983Z,12.70
2017-10-27T04:20:21.520Z,10.10
2017-10-27T04:22:49.055Z,14.30
2017-10-27T04:25:16.619Z,12.37
2017-10-27T04:27:44.151Z,11.13
2017-10-27T04:30:11.709Z,10.13
2017-10-27T04:32:39.290Z,11.03
2017-10-27T04:35:06.835Z,12.03
2017-10-27T04:37:34.664Z,15.77
2017-10-27T04:40:02.272Z,12.97
2017-10-27T04:42:29.805Z,16.33
2017-10-27T04:44:58.103Z,11.30
2017-10-27T04:47:25.665Z,10.67
2017-10-27T04:49:53.192Z,9.87
2017-10-27T04:52:20.728Z,12.17
2017-10-27T04:54:48.283Z,10.40
2017-10-27T04:57:16.387Z,10.87
2017-10-27T04:59:43.911Z,14.30
2017-10-27T05:02:12.275Z,10.47
2017-10-27T05:04:40.547Z,10.60
2017-10-27T05:07:08.084Z,13.73
2017-10-27T05:09:35.647Z,11.93
2017-10-27T05:12:03.180Z,11.30
2017-10-27T05:14:31.497Z,15.33
2017-10-27T05:17:04.649Z,12.67
2017-10-27T05:19:38.538Z,12.73
2017-10-27T05:22:11.748Z,12.77
2017-10-27T05:24:40.060Z,17.90
2017-10-27T05:27:07.598Z,15.53
2017-10-27T05:29:35.935Z,16.00
2017-10-27T05:32:03.477Z,14.55
2017-10-27T05:34:31.012Z,17.00
2017-10-27T05:36:58.571Z,24.97
2017-10-27T05:39:26.110Z,25.10
2017-10-27T05:41:54.412Z,20.20
2017-10-27T05:44:21.999Z,22.60
2017-10-27T05:46:49.543Z,25.60
2017-10-27T05:49:17.084Z,23.03
2017-10-27T05:51:44.643Z,20.80
2017-10-27T05:54:12.182Z,20.17
2017-10-27T05:56:39.719Z,21.93
2017-10-27T05:59:07.311Z,24.70
2017-10-27T06:01:35.611Z,25.20
2017-10-27T06:04:03.650Z,28.40
2017-10-27T06:06:31.996Z,28.30
2017-10-27T06:08:59.540Z,31.43
2017-10-27T06:11:27.839Z,26.12
2017-10-27T06:13:55.396Z,24.27
2017-10-27T06:16:22.930Z,25.83
2017-10-27T06:18:50.463Z,24.80
2017-10-27T06:21:18.040Z,26.33
2017-10-27T06:23:46.340Z,25.23
2017-10-27T06:26:15.479Z,25.98
2017-10-27T06:28:43.852Z,26.80
2017-10-27T06:31:12.159Z,25.70
2017-10-27T06:33:39.702Z,25.20
2017-10-27T06:36:08.034Z,27.53
2017-10-27T06:38:35.837Z,25.13
2017-10-27T06:41:04.140Z,26.13
2017-10-27T06:43:31.726Z,25.53
2017-10-27T06:45:59.269Z,27.77
2017-10-27T06:48:26.817Z,20.43
2017-10-27T06:50:54.431Z,21.10
2017-10-27T06:53:21.980Z,26.50
2017-10-27T06:55:49.523Z,26.83
2017-10-27T06:58:17.091Z,26.17
2017-10-27T07:00:44.637Z,27.15
2017-10-27T07:03:13.872Z,25.43
2017-10-27T07:05:41.563Z,24.23
2017-10-27T07:08:09.107Z,26.00
2017-10-27T07:10:36.650Z,24.87
2017-10-27T07:13:04.240Z,26.03
2017-10-27T07:15:31.775Z,29.03
2017-10-27T07:17:59.320Z,37.43
2017-10-27T07:20:26.885Z,27.13
2017-10-27T07:22:54.432Z,28.25
2017-10-27T07:25:21.971Z,26.00
2017-10-27T07:27:50.320Z,25.93
2017-10-27T07:30:17.864Z,26.57
2017-10-27T07:32:45.399Z,25.73
2017-10-27T07:35:19.507Z,23.95
2017-10-27T07:43:32.080Z,19.80
2017-10-27T07:45:59.631Z,20.40
2017-10-27T07:48:27.189Z,21.73
2017-10-27T07:50:54.787Z,19.70
2017-10-27T07:53:22.360Z,23.03
2017-10-27T07:55:49.896Z,24.80
2017-10-27T07:58:17.472Z,19.95
2017-10-27T08:00:45.012Z,20.67
2017-10-27T08:03:12.560Z,24.13
2017-10-27T08:05:40.128Z,20.77
2017-10-27T08:08:08.261Z,20.03
2017-10-27T08:10:35.799Z,23.00
2017-10-27T08:13:04.147Z,27.47
2017-10-27T08:15:31.702Z,20.70
2017-10-27T08:17:59.242Z,20.30
2017-10-27T08:20:26.808Z,16.40
2017-10-27T08:22:54.347Z,19.07
2017-10-27T08:25:21.887Z,18.50
2017-10-27T08:27:49.460Z,22.62
2017-10-27T08:30:17.164Z,13.77
2017-10-27T08:32:44.727Z,20.20
2017-10-27T08:35:12.391Z,19.33
2017-10-27T08:37:39.925Z,18.33
2017-10-27T08:40:07.516Z,14.77
2017-10-27T08:42:35.071Z,19.00
2017-10-27T08:45:02.600Z,16.97
2017-10-27T08:47:30.139Z,17.53
2017-10-27T08:49:57.698Z,13.07
2017-10-27T08:52:26.003Z,8.37
2017-10-27T08:54:53.535Z,5.50
2017-10-27T08:57:22.059Z,4.00
2017-10-27T08:59:49.591Z,4.17
2017-10-27T09:02:17.122Z,3.20
2017-10-27T09:04:44.675Z,3.30
2017-10-27T09:07:12.285Z,3.30
2017-10-27T09:09:40.316Z,3.47
2017-10-27T09:12:08.656Z,3.80
2017-10-27T09:14:36.363Z,3.57
2017-10-27T09:17:04.088Z,4.73
2017-10-27T09:19:31.680Z,3.60
2017-10-27T09:21:59.987Z,3.40
2017-10-27T09:24:27.522Z,3.47
2017-10-27T09:26:55.857Z,3.53
2017-10-27T09:29:23.395Z,5.05
2017-10-27T09:31:50.935Z,4.70
2017-10-27T09:34:18.504Z,3.35
2017-10-27T09:36:46.037Z,3.83
2017-10-27T09:39:14.576Z,2.67
2017-10-27T09:41:42.167Z,3.53
2017-10-27T09:44:09.698Z,3.77
2017-10-27T09:46:37.228Z,3.70
2017-10-27T09:49:04.779Z,3.13
2017-10-27T09:51:32.319Z,3.40
2017-10-27T09:54:00.614Z,3.43
2017-10-27T09:56:28.175Z,4.33
2017-10-27T09:58:55.741Z,3.50
2017-10-27T10:01:23.274Z,10.90
2017-10-27T10:03:50.869Z,3.63
2017-10-27T10:06:18.399Z,3.60
2017-10-27T10:08:45.936Z,3.47
2017-10-27T10:11:14.577Z,3.22
2017-10-27T10:13:42.115Z,3.40
2017-10-27T10:16:09.660Z,4.17
2017-10-27T10:18:37.978Z,4.73
2017-10-27T10:21:05.511Z,5.20
2017-10-27T10:23:33.043Z,3.45
2017-10-27T10:26:00.636Z,4.75
2017-10-27T10:28:28.163Z,5.63
2017-10-27T10:30:55.687Z,4.30
2017-10-27T10:33:23.260Z,4.55
2017-10-27T10:35:50.786Z,3.70
2017-10-27T10:38:18.311Z,4.67
2017-10-27T10:40:50.149Z,4.33
2017-10-27T11:32:16.577Z,5.72
2017-10-27T11:34:44.122Z,6.40
2017-10-27T11:37:11.656Z,8.20
2017-10-27T11:39:39.212Z,5.30
2017-10-27T11:42:07.510Z,6.10
2017-10-27T11:44:35.037Z,7.87
2017-10-27T11:47:03.355Z,5.93
2017-10-27T11:49:30.887Z,7.67
2017-10-27T11:51:59.179Z,11.25
2017-10-27T11:54:26.769Z,8.10
2017-10-27T11:56:54.299Z,7.60
2017-10-27T11:59:21.843Z,6.73
2017-10-27T12:01:50.167Z,10.85
2017-10-27T12:04:19.089Z,6.30
2017-10-27T12:06:47.181Z,6.40
2017-10-27T12:09:17.264Z,8.15
2017-10-27T12:11:44.808Z,5.53
2017-10-27T12:14:18.579Z,6.17
2017-10-27T12:16:46.368Z,5.37
2017-10-27T12:19:19.547Z,5.05
2017-10-27T12:29:57.194Z,6.00
2017-10-27T18:03:33.104Z,9.17
2017-10-27T18:06:00.732Z,9.23
2017-10-27T18:08:28.259Z,6.50
2017-10-27T18:10:55.807Z,6.70
2017-10-27T18:13:23.346Z,10.63
2017-10-27T18:15:50.875Z,8.07
2017-10-27T18:18:18.436Z,7.23
2017-10-27T18:20:48.149Z,7.03
2017-10-27T18:26:25.436Z,8.37
2017-10-27T18:28:53.090Z,8.67
2017-10-27T18:31:21.386Z,9.88
2017-10-27T18:33:49.013Z,24.50
2017-10-27T18:36:18.608Z,23.70
2017-10-27T18:38:48.824Z,15.37
2017-10-27T18:41:16.468Z,14.90
2017-10-27T18:43:44.084Z,13.70
2017-10-27T18:46:11.624Z,25.20
2017-10-27T18:48:39.164Z,13.77
2017-10-27T18:51:06.794Z,14.80
2017-10-27T18:53:34.328Z,20.60
2017-10-27T18:56:01.868Z,12.57
2017-10-27T18:58:32.144Z,15.43
2017-10-27T19:01:00.455Z,12.73
2017-10-27T19:03:28.010Z,16.17
2017-10-27T19:05:56.019Z,20.70
2017-10-27T19:08:23.561Z,20.70
2017-10-27T19:10:51.095Z,16.50
2017-10-27T19:13:18.662Z,14.20
2017-10-27T19:15:46.195Z,13.77
2017-10-27T19:18:20.961Z,12.60
2017-10-27T19:26:53.552Z,12.83
2017-10-27T19:29:21.110Z,18.57
2017-10-27T19:31:48.647Z,13.40
2017-10-27T19:34:16.419Z,14.18
2017-10-27T19:36:43.956Z,14.40
2017-10-27T19:39:11.492Z,17.10
2017-10-27T19:41:39.052Z,15.70
2017-10-27T19:44:06.587Z,13.20
2017-10-27T19:46:34.124Z,17.47
2017-10-27T19:49:02.480Z,13.23
2017-10-27T19:51:30.033Z,22.08
2017-10-27T19:53:57.568Z,23.10
2017-10-27T19:56:25.904Z,21.00
2017-10-27T19:58:54.203Z,14.68
2017-10-27T20:01:21.741Z,15.23
2017-10-27T20:03:49.336Z,19.73
2017-10-27T20:06:17.259Z,14.87
2017-10-27T20:08:44.791Z,14.53
2017-10-27T20:11:12.386Z,18.37
2017-10-27T20:13:39.923Z,17.93
2017-10-27T20:16:07.465Z,15.68
2017-10-27T20:18:35.027Z,17.90
2017-10-27T20:21:02.559Z,17.63
2017-10-27T20:23:30.309Z,16.10
2017-10-27T20:25:57.875Z,16.20
2017-10-27T20:28:25.412Z,17.50
2017-10-27T20:30:53.720Z,14.97
2017-10-27T20:33:21.307Z,14.40
2017-10-27T20:35:48.845Z,16.70
2017-10-27T20:38:16.404Z,17.63
2017-10-27T20:40:43.960Z,17.00
2017-10-27T20:43:11.493Z,13.70
2017-10-27T20:45:39.035Z,17.03
2017-10-27T20:48:06.615Z,15.50
2017-10-27T20:50:34.227Z,16.20
2017-10-27T20:53:01.766Z,16.57
2017-10-27T20:55:29.359Z,17.30
2017-10-27T20:57:56.891Z,18.40
2017-10-27T21:00:24.428Z,16.27
2017-10-27T21:02:51.984Z,14.20
2017-10-27T21:05:19.516Z,13.98
2017-10-27T21:07:47.279Z,15.07
2017-10-27T21:10:16.884Z,12.60
2017-10-27T21:12:44.434Z,16.23
2017-10-27T21:15:12.005Z,20.27
2017-10-27T21:17:39.601Z,18.07
2017-10-27T21:20:07.130Z,13.73
2017-10-27T21:22:34.668Z,15.53
2017-10-27T21:25:02.227Z,15.60
2017-10-27T21:27:29.760Z,14.20
2017-10-27T21:29:57.300Z,12.07
2017-10-27T21:32:24.885Z,17.37
2017-10-27T21:34:52.423Z,17.27
2017-10-27T21:37:19.991Z,12.32
2017-10-27T21:39:47.695Z,15.10
2017-10-27T21:42:16.412Z,22.90
2017-10-27T21:44:43.951Z,10.60
2017-10-27T21:47:11.508Z,11.63
2017-10-27T21:49:39.039Z,14.67
2017-10-27T21:52:06.583Z,17.70
2017-10-27T21:54:34.641Z,17.00
2017-10-27T21:57:02.167Z,13.03
2017-10-27T21:59:29.695Z,14.70
2017-10-27T22:01:57.288Z,16.53
2017-10-27T22:04:24.823Z,16.10
2017-10-27T22:06:52.356Z,14.40
2017-10-27T22:09:20.131Z,18.27
2017-10-27T22:11:47.667Z,18.00
2017-10-27T22:14:16.252Z,17.13
2017-10-27T22:16:43.828Z,17.47
2017-10-27T22:19:11.373Z,17.83
2017-10-27T22:21:39.671Z,18.97
2017-10-27T22:24:07.272Z,13.70
2017-10-27T22:26:35.583Z,17.53
2017-10-27T22:29:03.124Z,16.80
2017-10-27T22:31:31.451Z,17.27
2017-10-27T22:33:58.988Z,16.20
2017-10-27T22:36:26.511Z,19.90
2017-10-27T22:38:54.103Z,17.80
2017-10-27T22:41:21.847Z,16.70
2017-10-27T22:43:49.406Z,19.60
2017-10-27T22:46:17.759Z,16.70
2017-10-27T22:48:45.295Z,18.43
2017-10-27T22:51:13.762Z,15.07
2017-10-27T22:53:41.325Z,20.33
2017-10-27T22:56:08.864Z,18.27
2017-10-27T22:58:36.503Z,17.52
2017-10-27T23:01:04.055Z,16.17
2017-10-27T23:03:32.360Z,18.13
2017-10-27T23:05:59.893Z,20.57
2017-10-27T23:08:28.372Z,17.67
2017-10-27T23:10:56.884Z,20.07
2017-10-27T23:13:24.612Z,24.25
2017-10-27T23:15:52.171Z,19.67
2017-10-27T23:18:19.798Z,26.20
2017-10-27T23:20:47.332Z,24.07
2017-10-27T23:23:16.419Z,18.90
2017-10-27T23:25:43.956Z,19.83
2017-10-27T23:28:11.496Z,29.40
2017-10-27T23:30:39.084Z,21.53
2017-10-27T23:33:07.460Z,21.07
2017-10-27T23:35:35.193Z,22.87
2017-10-27T23:38:02.751Z,32.43
2017-10-27T23:40:30.288Z,19.03
2017-10-27T23:42:57.827Z,25.70
2017-10-27T23:45:25.378Z,25.53
2017-10-27T23:47:52.925Z,19.37
2017-10-27T23:50:21.228Z,21.44
2017-10-27T23:52:48.817Z,25.43
2017-10-27T23:55:17.266Z,22.40
2017-10-27T23:57:44.804Z,25.17
